createdAt,value
2018-05-31T00:00:18.903Z,15.39
2018-05-31T00:02:49.099Z,15.23
2018-05-31T00:05:19.469Z,15.21
2018-05-31T00:07:50.083Z,15.03
2018-05-31T00:10:19.962Z,14.83
2018-05-31T00:12:50.789Z,14.76
2018-05-31T00:15:20.888Z,14.96
2018-05-31T00:17:51.034Z,14.97
2018-05-31T00:20:21.364Z,14.85
2018-05-31T00:22:51.917Z,14.79
2018-05-31T00:25:22.155Z,14.73
2018-05-31T00:27:52.306Z,14.84
2018-05-31T00:30:22.795Z,14.88
2018-05-31T00:33:06.000Z,14.84
2018-05-31T00:35:49.213Z,14.70
2018-05-31T00:38:19.704Z,14.67
2018-05-31T00:40:50.149Z,14.75
2018-05-31T00:43:20.129Z,14.64
2018-05-31T00:45:50.864Z,14.64
2018-05-31T00:48:20.710Z,14.69
2018-05-31T00:50:51.061Z,14.65
2018-05-31T00:53:21.374Z,14.14
2018-05-31T00:56:03.357Z,14.05
2018-05-31T00:58:33.689Z,14.01
2018-05-31T01:01:04.024Z,14.00
2018-05-31T01:03:34.686Z,13.60
2018-05-31T01:06:05.124Z,13.66
2018-05-31T01:08:35.250Z,13.85
2018-05-31T01:11:05.444Z,13.75
2018-05-31T01:13:35.785Z,13.67
2018-05-31T01:16:05.819Z,13.49
2018-05-31T01:18:36.013Z,13.46
2018-05-31T01:21:06.225Z,13.76
2018-05-31T01:23:37.102Z,13.48
2018-05-31T01:26:07.710Z,12.95
2018-05-31T01:28:38.307Z,12.93
2018-05-31T01:31:08.892Z,12.97
2018-05-31T01:33:39.118Z,13.21
2018-05-31T01:36:09.689Z,13.30
2018-05-31T01:38:40.038Z,13.41
2018-05-31T01:41:10.725Z,13.59
2018-05-31T01:43:41.381Z,13.61
2018-05-31T01:46:11.328Z,13.66
2018-05-31T01:48:41.932Z,13.45
2018-05-31T01:51:12.632Z,13.53
2018-05-31T01:53:44.137Z,13.56
2018-05-31T01:56:14.499Z,13.54
2018-05-31T01:58:45.188Z,13.67
2018-05-31T02:01:15.228Z,13.73
2018-05-31T02:03:45.460Z,13.74
2018-05-31T02:06:15.722Z,13.75
2018-05-31T02:08:46.117Z,13.77
2018-05-31T02:11:16.291Z,13.76
2018-05-31T02:13:46.687Z,13.77
2018-05-31T02:16:17.041Z,13.75
2018-05-31T02:18:47.476Z,13.71
2018-05-31T02:21:18.005Z,13.40
2018-05-31T02:23:48.300Z,13.19
2018-05-31T02:26:19.031Z,13.25
2018-05-31T02:28:49.265Z,13.19
2018-05-31T02:31:19.171Z,12.89
2018-05-31T02:33:49.213Z,12.81
2018-05-31T02:36:19.555Z,12.95
2018-05-31T02:38:49.964Z,12.83
2018-05-31T02:41:20.463Z,12.56
2018-05-31T02:43:50.793Z,12.76
2018-05-31T02:46:20.699Z,12.96
2018-05-31T02:48:50.873Z,13.03
2018-05-31T02:51:21.578Z,13.14
2018-05-31T02:53:51.922Z,12.87
2018-05-31T02:56:21.784Z,12.84
2018-05-31T02:58:52.231Z,12.79
2018-05-31T03:01:22.942Z,12.82
2018-05-31T03:03:53.623Z,12.61
2018-05-31T03:06:23.960Z,12.84
2018-05-31T03:08:54.227Z,13.00
2018-05-31T03:11:25.440Z,13.00
2018-05-31T03:13:55.689Z,12.98
2018-05-31T03:16:25.965Z,12.92
2018-05-31T03:18:56.567Z,12.89
2018-05-31T03:21:26.789Z,12.85
2018-05-31T03:23:57.235Z,12.99
2018-05-31T03:26:27.074Z,13.14
2018-05-31T03:28:57.579Z,13.44
2018-05-31T03:31:28.066Z,13.62
2018-05-31T03:33:58.414Z,13.47
2018-05-31T03:36:28.233Z,13.53
2018-05-31T03:38:58.701Z,13.61
2018-05-31T03:41:28.661Z,13.68
2018-05-31T03:43:59.284Z,13.81
2018-05-31T03:46:29.202Z,13.80
2018-05-31T03:48:59.989Z,13.81
2018-05-31T03:51:29.978Z,13.80
2018-05-31T03:54:00.497Z,13.93
2018-05-31T03:56:31.137Z,14.16
2018-05-31T03:59:01.654Z,14.33
2018-05-31T04:01:31.761Z,14.49
2018-05-31T04:04:03.004Z,14.48
2018-05-31T04:06:33.707Z,14.50
2018-05-31T04:09:03.791Z,14.56
2018-05-31T04:11:34.067Z,14.59
2018-05-31T04:14:04.439Z,14.65
2018-05-31T04:16:34.313Z,14.92
2018-05-31T04:19:04.441Z,15.04
2018-05-31T04:21:34.726Z,15.30
2018-05-31T04:24:05.457Z,15.57
2018-05-31T04:26:35.451Z,15.84
2018-05-31T04:29:06.212Z,16.09
2018-05-31T04:31:36.771Z,16.23
2018-05-31T04:34:07.061Z,16.30
2018-05-31T04:36:37.565Z,16.56
2018-05-31T04:39:08.176Z,16.73
2018-05-31T04:41:38.680Z,16.92
2018-05-31T04:44:09.150Z,17.14
2018-05-31T04:46:39.408Z,17.27
2018-05-31T04:49:09.909Z,17.17
2018-05-31T04:51:40.429Z,17.21
2018-05-31T04:54:10.458Z,17.22
2018-05-31T04:56:41.505Z,17.31
2018-05-31T04:59:11.800Z,17.64
2018-05-31T05:01:42.490Z,17.65
2018-05-31T05:04:13.032Z,17.65
2018-05-31T05:06:43.675Z,17.71
2018-05-31T05:09:14.017Z,17.64
2018-05-31T05:11:44.472Z,17.80
2018-05-31T05:14:15.220Z,18.10
2018-05-31T05:16:45.625Z,18.23
2018-05-31T05:19:15.603Z,18.33
2018-05-31T05:21:46.509Z,18.41
2018-05-31T05:24:16.861Z,18.54
2018-05-31T05:26:47.372Z,18.57
2018-05-31T05:29:17.751Z,18.66
2018-05-31T05:31:48.326Z,18.93
2018-05-31T05:34:18.147Z,19.05
2018-05-31T05:36:48.457Z,19.18
2018-05-31T05:39:18.962Z,19.28
2018-05-31T05:41:49.516Z,19.46
2018-05-31T05:44:19.956Z,19.55
2018-05-31T05:46:50.219Z,19.69
2018-05-31T05:49:20.341Z,19.99
2018-05-31T05:51:50.814Z,20.22
2018-05-31T05:54:21.252Z,20.19
2018-05-31T05:56:51.814Z,20.26
2018-05-31T05:59:22.115Z,20.29
2018-05-31T06:01:52.252Z,20.61
2018-05-31T06:04:22.654Z,21.00
2018-05-31T06:06:52.881Z,21.03
2018-05-31T06:09:23.239Z,21.26
2018-05-31T06:11:54.024Z,21.57
2018-05-31T06:14:23.820Z,21.70
2018-05-31T06:16:53.636Z,21.83
2018-05-31T06:19:24.113Z,21.90
2018-05-31T06:21:54.381Z,22.00
2018-05-31T06:24:25.032Z,22.28
2018-05-31T06:26:55.461Z,22.31
2018-05-31T06:29:25.726Z,22.28
2018-05-31T06:31:56.057Z,22.58
2018-05-31T06:34:26.245Z,22.76
2018-05-31T06:36:56.467Z,22.73
2018-05-31T06:39:26.996Z,22.84
2018-05-31T06:41:56.804Z,22.97
2018-05-31T06:44:27.441Z,22.99
2018-05-31T06:46:57.912Z,23.14
2018-05-31T06:49:28.430Z,23.11
2018-05-31T06:51:58.705Z,23.20
2018-05-31T06:54:29.581Z,23.30
2018-05-31T06:57:03.237Z,23.53
2018-05-31T06:59:33.747Z,23.57
2018-05-31T07:02:03.976Z,23.83
2018-05-31T07:04:33.976Z,23.90
2018-05-31T07:07:04.473Z,23.96
2018-05-31T07:09:35.069Z,24.07
2018-05-31T07:12:05.684Z,24.14
2018-05-31T07:14:36.040Z,24.22
2018-05-31T07:17:06.601Z,24.28
2018-05-31T07:19:36.509Z,24.74
2018-05-31T07:22:06.411Z,25.07
2018-05-31T07:24:36.299Z,25.07
2018-05-31T07:27:06.428Z,24.93
2018-05-31T07:29:36.748Z,25.23
2018-05-31T07:32:06.945Z,25.25
2018-05-31T07:34:37.473Z,25.29
2018-05-31T07:37:07.897Z,25.54
2018-05-31T07:39:38.463Z,25.65
2018-05-31T07:42:08.758Z,25.79
2018-05-31T07:44:39.210Z,25.86
2018-05-31T07:47:09.160Z,26.23
2018-05-31T07:49:39.693Z,26.39
2018-05-31T07:52:10.159Z,26.64
2018-05-31T07:54:40.175Z,26.52
2018-05-31T07:57:10.713Z,26.63
2018-05-31T07:59:41.159Z,26.68
2018-05-31T08:02:11.206Z,26.95
2018-05-31T08:04:41.432Z,27.32
2018-05-31T08:07:12.338Z,27.74
2018-05-31T08:09:42.192Z,27.71
2018-05-31T08:12:12.915Z,27.65
2018-05-31T08:14:43.034Z,28.06
2018-05-31T08:17:13.669Z,28.68
2018-05-31T08:19:44.210Z,29.02
2018-05-31T08:22:14.831Z,28.95
2018-05-31T08:24:45.004Z,29.08
2018-05-31T08:27:15.099Z,29.35
2018-05-31T08:29:45.623Z,29.65
2018-05-31T08:32:15.899Z,30.16
2018-05-31T08:34:46.379Z,30.34
2018-05-31T08:37:16.797Z,30.30
2018-05-31T08:39:46.629Z,30.10
2018-05-31T08:42:17.084Z,30.19
2018-05-31T08:44:47.653Z,30.45
2018-05-31T08:47:18.590Z,30.66
2018-05-31T08:49:49.039Z,30.94
2018-05-31T08:52:18.903Z,30.98
2018-05-31T08:54:48.944Z,31.04
2018-05-31T08:57:18.741Z,31.37
2018-05-31T08:59:48.673Z,31.65
2018-05-31T09:02:18.487Z,31.31
2018-05-31T09:04:49.426Z,31.15
2018-05-31T09:07:19.251Z,31.01
2018-05-31T09:09:49.182Z,30.88
2018-05-31T09:12:19.002Z,30.60
2018-05-31T09:14:49.110Z,30.60
2018-05-31T09:17:18.925Z,30.96
2018-05-31T09:19:48.741Z,30.95
2018-05-31T09:22:18.546Z,31.15
2018-05-31T09:24:48.449Z,31.42
2018-05-31T09:27:18.173Z,31.33
2018-05-31T09:29:47.979Z,31.65
2018-05-31T09:32:17.876Z,32.31
2018-05-31T09:34:47.724Z,31.79
2018-05-31T09:37:17.533Z,32.15
2018-05-31T09:39:47.476Z,32.54
2018-05-31T09:42:17.302Z,32.73
2018-05-31T09:44:47.194Z,32.37
2018-05-31T09:47:16.916Z,31.98
2018-05-31T09:49:46.857Z,32.29
2018-05-31T09:52:16.676Z,31.91
2018-05-31T09:54:46.576Z,31.80
2018-05-31T09:57:16.406Z,32.29
2018-05-31T09:59:46.144Z,32.85
2018-05-31T10:02:15.980Z,33.32
2018-05-31T10:04:45.793Z,33.02
2018-05-31T10:07:15.607Z,32.25
2018-05-31T10:09:45.330Z,31.90
2018-05-31T10:12:15.154Z,31.85
2018-05-31T10:14:44.986Z,32.22
2018-05-31T10:17:14.764Z,32.29
2018-05-31T10:19:44.576Z,32.22
2018-05-31T10:22:14.433Z,31.77
2018-05-31T10:24:44.316Z,31.66
2018-05-31T10:27:17.849Z,31.63
2018-05-31T10:29:47.688Z,31.52
2018-05-31T10:32:17.426Z,32.17
2018-05-31T10:34:47.435Z,32.82
2018-05-31T10:37:17.325Z,32.75
2018-05-31T10:39:59.778Z,32.80
2018-05-31T10:42:42.352Z,33.02
2018-05-31T10:45:12.123Z,33.71
2018-05-31T10:47:41.910Z,33.11
2018-05-31T10:50:11.685Z,32.74
2018-05-31T10:52:41.485Z,32.61
2018-05-31T10:55:11.294Z,32.56
2018-05-31T10:57:41.163Z,33.15
2018-05-31T11:00:11.039Z,33.36
2018-05-31T11:02:40.833Z,33.30
2018-05-31T11:05:10.645Z,33.00
2018-05-31T11:07:40.427Z,32.92
2018-05-31T11:10:10.291Z,33.01
2018-05-31T11:12:40.678Z,32.83
2018-05-31T11:15:10.593Z,32.50
2018-05-31T11:17:40.338Z,32.41
2018-05-31T11:20:10.247Z,32.46
2018-05-31T11:22:40.022Z,32.99
2018-05-31T11:25:09.766Z,32.90
2018-05-31T11:27:39.529Z,33.18
2018-05-31T11:30:09.355Z,33.59
2018-05-31T11:32:39.154Z,33.89
2018-05-31T11:35:08.887Z,33.02
2018-05-31T11:37:38.658Z,32.62
2018-05-31T11:40:08.540Z,32.62
2018-05-31T11:42:38.326Z,32.60
2018-05-31T11:45:08.524Z,32.76
2018-05-31T11:47:38.262Z,32.56
2018-05-31T11:50:08.092Z,32.78
2018-05-31T11:52:37.876Z,32.52
2018-05-31T11:55:07.672Z,32.86
2018-05-31T11:57:37.470Z,33.08
2018-05-31T12:00:07.254Z,33.43
2018-05-31T12:02:37.089Z,33.15
2018-05-31T12:05:06.872Z,33.00
2018-05-31T12:07:36.633Z,33.03
2018-05-31T12:10:06.446Z,33.33
2018-05-31T12:12:36.225Z,33.34
2018-05-31T12:15:06.063Z,33.14
2018-05-31T12:17:35.842Z,33.29
2018-05-31T12:20:05.612Z,33.22
2018-05-31T12:22:35.530Z,33.75
2018-05-31T12:25:05.276Z,34.06
2018-05-31T12:27:35.045Z,34.19
2018-05-31T12:30:04.882Z,34.83
2018-05-31T12:32:34.633Z,34.54
2018-05-31T12:35:04.380Z,33.70
2018-05-31T12:37:34.199Z,34.11
2018-05-31T12:40:04.130Z,34.24
2018-05-31T12:42:33.900Z,34.44
2018-05-31T12:45:16.214Z,34.20
2018-05-31T12:47:58.808Z,34.10
2018-05-31T12:50:28.974Z,34.18
2018-05-31T12:52:58.774Z,34.53
2018-05-31T12:55:28.669Z,34.31
2018-05-31T12:57:58.432Z,34.56
2018-05-31T13:00:28.210Z,35.21
2018-05-31T13:02:58.024Z,35.34
2018-05-31T13:05:27.781Z,35.30
2018-05-31T13:07:57.523Z,34.89
2018-05-31T13:10:27.265Z,34.70
2018-05-31T13:12:57.040Z,34.27
2018-05-31T13:15:26.864Z,34.48
2018-05-31T13:17:56.605Z,34.79
2018-05-31T13:20:26.450Z,34.88
2018-05-31T13:22:56.266Z,35.21
2018-05-31T13:25:26.020Z,35.22
2018-05-31T13:27:55.931Z,34.69
2018-05-31T13:30:25.661Z,34.91
2018-05-31T13:32:55.496Z,35.39
2018-05-31T13:35:25.472Z,35.71
2018-05-31T13:37:55.288Z,36.11
2018-05-31T13:40:25.106Z,35.82
2018-05-31T13:42:54.939Z,35.95
2018-05-31T13:45:24.750Z,35.65
2018-05-31T13:47:54.483Z,35.89
2018-05-31T13:50:24.216Z,35.92
2018-05-31T13:52:54.019Z,34.97
2018-05-31T13:55:23.809Z,34.33
2018-05-31T13:57:53.639Z,33.85
2018-05-31T14:00:23.413Z,33.37
2018-05-31T14:02:53.214Z,32.95
2018-05-31T14:05:23.001Z,33.04
2018-05-31T14:07:52.745Z,33.24
2018-05-31T14:13:04.437Z,34.29
2018-05-31T14:15:34.260Z,34.30
2018-05-31T14:18:04.086Z,34.12
2018-05-31T14:20:33.941Z,33.85
2018-05-31T14:23:03.740Z,34.11
2018-05-31T14:25:33.478Z,33.86
2018-05-31T14:28:03.275Z,33.07
2018-05-31T14:30:33.209Z,32.65
2018-05-31T14:33:03.056Z,32.48
2018-05-31T14:35:32.864Z,32.70
2018-05-31T14:38:02.632Z,32.76
2018-05-31T14:40:32.439Z,33.23
2018-05-31T14:43:02.553Z,33.33
2018-05-31T14:45:32.309Z,33.40
2018-05-31T14:48:02.056Z,33.30
2018-05-31T14:50:31.903Z,33.81
2018-05-31T14:53:01.716Z,33.92
2018-05-31T14:55:31.499Z,33.71
2018-05-31T14:58:01.316Z,33.55
2018-05-31T15:00:31.126Z,33.59
2018-05-31T15:03:00.958Z,33.66
2018-05-31T15:05:30.721Z,33.36
2018-05-31T15:08:00.447Z,33.73
2018-05-31T15:10:30.299Z,33.73
2018-05-31T15:13:00.147Z,33.61
2018-05-31T15:15:29.971Z,33.36
2018-05-31T15:17:59.787Z,33.38
2018-05-31T15:20:29.599Z,33.59
2018-05-31T15:22:59.438Z,33.05
2018-05-31T15:25:29.191Z,32.78
2018-05-31T15:27:58.940Z,32.51
2018-05-31T15:30:28.799Z,32.76
2018-05-31T15:32:58.618Z,32.78
2018-05-31T15:35:28.446Z,33.16
2018-05-31T15:37:58.268Z,33.27
2018-05-31T15:40:28.137Z,33.46
2018-05-31T15:42:57.889Z,33.45
2018-05-31T15:45:27.655Z,33.24
2018-05-31T15:47:57.413Z,33.43
2018-05-31T15:50:27.226Z,33.46
2018-05-31T15:52:57.028Z,33.36
2018-05-31T15:55:26.894Z,33.85
2018-05-31T15:57:56.707Z,34.01
2018-05-31T16:00:26.485Z,33.71
2018-05-31T16:02:56.237Z,33.61
2018-05-31T16:05:25.994Z,33.54
2018-05-31T16:07:55.752Z,33.28
2018-05-31T16:10:25.529Z,33.45
2018-05-31T16:12:55.336Z,33.42
2018-05-31T16:15:25.089Z,33.54
2018-05-31T16:17:54.943Z,33.75
2018-05-31T16:20:24.723Z,33.69
2018-05-31T16:22:54.493Z,33.80
2018-05-31T16:25:24.271Z,33.71
2018-05-31T16:27:54.055Z,33.86
2018-05-31T16:30:23.829Z,33.74
2018-05-31T16:32:53.582Z,33.61
2018-05-31T16:35:23.357Z,33.42
2018-05-31T16:37:53.206Z,33.26
2018-05-31T16:40:23.060Z,32.96
2018-05-31T16:42:53.027Z,33.16
2018-05-31T16:45:22.885Z,33.07
2018-05-31T16:47:52.635Z,32.87
2018-05-31T16:50:22.456Z,32.72
2018-05-31T16:52:52.322Z,32.75
2018-05-31T16:55:22.154Z,32.70
2018-05-31T16:57:51.939Z,32.60
2018-05-31T17:00:21.780Z,32.20
2018-05-31T17:02:51.934Z,31.88
2018-05-31T17:05:21.858Z,31.61
2018-05-31T17:07:51.619Z,31.00
2018-05-31T17:10:21.420Z,30.60
2018-05-31T17:12:51.253Z,30.21
2018-05-31T17:15:21.019Z,29.71
2018-05-31T17:17:50.831Z,29.41
2018-05-31T17:20:20.637Z,29.15
2018-05-31T17:22:50.469Z,28.81
2018-05-31T17:25:20.260Z,28.41
2018-05-31T17:27:49.995Z,28.05
2018-05-31T17:30:19.786Z,27.81
2018-05-31T17:32:49.565Z,27.49
2018-05-31T17:35:19.359Z,27.23
2018-05-31T17:37:49.120Z,26.92
2018-05-31T17:40:18.878Z,26.52
2018-05-31T17:42:48.712Z,26.04
2018-05-31T17:45:18.455Z,26.04
2018-05-31T17:47:48.257Z,26.01
2018-05-31T17:50:18.074Z,25.51
2018-05-31T17:52:47.896Z,25.34
2018-05-31T17:55:17.729Z,25.48
2018-05-31T17:57:47.527Z,25.62
2018-05-31T18:00:17.321Z,25.48
2018-05-31T18:02:47.144Z,25.22
2018-05-31T18:05:16.891Z,24.97
2018-05-31T18:07:46.678Z,24.69
2018-05-31T18:10:16.440Z,24.51
2018-05-31T18:12:46.233Z,24.16
2018-05-31T18:15:16.103Z,23.98
2018-05-31T18:17:45.864Z,23.73
2018-05-31T18:20:15.756Z,23.68
2018-05-31T18:22:45.546Z,23.62
2018-05-31T18:25:15.338Z,23.59
2018-05-31T18:27:45.056Z,23.37
2018-05-31T18:30:14.874Z,23.21
2018-05-31T18:32:44.655Z,23.05
2018-05-31T18:35:14.487Z,23.03
2018-05-31T18:37:44.309Z,22.82
2018-05-31T18:40:14.065Z,22.66
2018-05-31T18:42:43.869Z,22.68
2018-05-31T18:45:13.651Z,22.61
2018-05-31T18:47:43.425Z,22.48
2018-05-31T18:50:13.227Z,22.30
2018-05-31T18:52:43.034Z,22.25
2018-05-31T18:55:12.806Z,22.19
2018-05-31T18:57:42.672Z,22.01
2018-05-31T19:00:12.485Z,21.77
2018-05-31T19:02:42.312Z,21.29
2018-05-31T19:05:12.059Z,21.56
2018-05-31T19:07:41.800Z,21.49
2018-05-31T19:10:11.631Z,21.43
2018-05-31T19:12:47.075Z,21.27
2018-05-31T19:15:21.634Z,21.29
2018-05-31T19:17:46.722Z,21.15
2018-05-31T19:20:16.555Z,21.11
2018-05-31T19:22:46.377Z,21.05
2018-05-31T19:25:20.956Z,20.92
2018-05-31T19:27:50.666Z,20.93
2018-05-31T19:30:26.216Z,20.77
2018-05-31T19:32:56.050Z,20.60
2018-05-31T19:35:31.708Z,20.59
2018-05-31T19:38:01.512Z,20.61
2018-05-31T19:40:31.275Z,20.64
2018-05-31T19:43:06.559Z,20.65
2018-05-31T19:45:36.333Z,20.33
2018-05-31T19:48:07.032Z,20.28
2018-05-31T19:50:36.821Z,20.40
2018-05-31T19:53:12.416Z,20.41
2018-05-31T19:55:42.216Z,20.41
2018-05-31T19:58:17.755Z,20.40
2018-05-31T20:00:53.372Z,20.19
2018-05-31T20:03:28.775Z,20.00
2018-05-31T20:05:58.585Z,20.04
2018-05-31T20:08:28.347Z,19.79
2018-05-31T20:10:58.195Z,19.79
2018-05-31T20:13:28.003Z,19.73
2018-05-31T20:15:57.766Z,19.64
2018-05-31T20:18:27.581Z,19.64
2018-05-31T20:20:57.398Z,19.61
2018-05-31T20:23:27.289Z,19.64
2018-05-31T20:25:57.016Z,19.60
2018-05-31T20:28:26.773Z,19.53
2018-05-31T20:30:56.647Z,19.45
2018-05-31T20:33:26.371Z,19.19
2018-05-31T20:35:56.224Z,19.14
2018-05-31T20:38:26.079Z,19.08
2018-05-31T20:40:55.953Z,18.97
2018-05-31T20:43:25.736Z,18.94
2018-05-31T20:45:55.498Z,18.98
2018-05-31T20:48:25.286Z,18.53
2018-05-31T20:50:55.044Z,18.26
2018-05-31T20:53:24.922Z,18.35
2018-05-31T20:55:54.715Z,18.56
2018-05-31T20:58:24.508Z,18.16
2018-05-31T21:00:54.355Z,18.06
2018-05-31T21:03:24.210Z,18.12
2018-05-31T21:05:54.004Z,18.02
2018-05-31T21:08:23.727Z,18.02
2018-05-31T21:10:53.524Z,18.08
2018-05-31T21:13:23.370Z,18.00
2018-05-31T21:15:53.204Z,18.07
2018-05-31T21:18:22.977Z,18.08
2018-05-31T21:20:52.804Z,17.91
2018-05-31T21:23:22.558Z,17.76
2018-05-31T21:25:52.332Z,17.54
2018-05-31T21:28:22.050Z,17.48
2018-05-31T21:30:51.889Z,17.30
2018-05-31T21:33:21.707Z,17.52
2018-05-31T21:35:51.532Z,17.50
2018-05-31T21:38:21.353Z,17.47
2018-05-31T21:40:51.135Z,17.61
2018-05-31T21:43:21.033Z,17.71
2018-05-31T21:45:50.760Z,17.78
2018-05-31T21:48:20.503Z,17.74
2018-05-31T21:50:50.305Z,17.73
2018-05-31T21:53:20.167Z,17.71
2018-05-31T21:55:50.006Z,17.68
2018-05-31T21:58:19.795Z,17.64
2018-05-31T22:00:55.292Z,17.44
2018-05-31T22:03:25.116Z,17.37
2018-05-31T22:05:54.921Z,17.26
2018-05-31T22:08:24.637Z,17.21
2018-05-31T22:10:54.415Z,17.28
2018-05-31T22:13:24.295Z,17.29
2018-05-31T22:15:54.128Z,17.36
2018-05-31T22:18:23.928Z,17.31
2018-05-31T22:20:53.763Z,17.29
2018-05-31T22:23:23.603Z,17.11
2018-05-31T22:25:53.333Z,16.89
2018-05-31T22:28:23.080Z,16.85
2018-05-31T22:30:52.890Z,16.99
2018-05-31T22:33:22.677Z,16.84
2018-05-31T22:35:52.593Z,16.80
2018-05-31T22:38:22.417Z,16.61
2018-05-31T22:40:52.188Z,16.60
2018-05-31T22:43:22.006Z,16.84
2018-05-31T22:45:51.728Z,16.85
2018-05-31T22:48:21.546Z,16.84
2018-05-31T22:50:51.273Z,16.92
2018-05-31T22:53:21.140Z,16.87
2018-05-31T22:55:50.962Z,16.69
2018-05-31T22:58:20.832Z,16.59
2018-05-31T23:00:50.690Z,16.50
2018-05-31T23:03:20.493Z,16.58
2018-05-31T23:05:50.292Z,16.60
2018-05-31T23:08:20.069Z,16.59
2018-05-31T23:10:49.928Z,16.41
2018-05-31T23:13:19.766Z,16.07
2018-05-31T23:15:49.598Z,16.15
2018-05-31T23:18:19.358Z,16.16
2018-05-31T23:20:49.146Z,16.27
2018-05-31T23:23:18.950Z,16.25
2018-05-31T23:25:48.702Z,16.22
2018-05-31T23:28:18.435Z,16.15
2018-05-31T23:30:48.295Z,16.11
2018-05-31T23:33:18.034Z,16.05
2018-05-31T23:35:47.817Z,15.89
2018-05-31T23:38:17.746Z,15.86
2018-05-31T23:40:47.547Z,15.80
2018-05-31T23:43:17.391Z,15.81
2018-05-31T23:45:47.099Z,15.68
2018-05-31T23:48:16.810Z,15.76
2018-05-31T23:50:46.575Z,15.82
2018-05-31T23:53:16.440Z,15.77
2018-05-31T23:55:46.301Z,15.73
2018-05-31T23:58:16.104Z,15.79
